sensor_id;sensor_type;location;lat;lon;timestamp;pressure;altitude;pressure_sealevel;temperature;humidity
51083;BME280;37131;42.694;23.350;2022-08-01T00:02:23;95347.97;;;19.84;57.87
51083;BME280;37131;42.694;23.350;2022-08-01T00:04:49;95349.03;;;19.19;61.70
51083;BME280;37131;42.694;23.350;2022-08-01T00:07:14;95350.56;;;19.25;63.16
51083;BME280;37131;42.694;23.350;2022-08-01T00:09:40;95359.16;;;19.46;62.84
51083;BME280;37131;42.694;23.350;2022-08-01T00:12:05;95312.34;;;18.72;65.13
51083;BME280;37131;42.694;23.350;2022-08-01T00:14:31;95359.44;;;18.55;67.48
51083;BME280;37131;42.694;23.350;2022-08-01T00:16:56;95364.06;;;18.23;69.41
51083;BME280;37131;42.694;23.350;2022-08-01T00:19:21;95372.81;;;18.19;69.82
51083;BME280;37131;42.694;23.350;2022-08-01T00:21:47;95362.00;;;18.05;71.26
51083;BME280;37131;42.694;23.350;2022-08-01T00:24:12;95364.44;;;17.70;72.47
51083;BME280;37131;42.694;23.350;2022-08-01T00:26:38;95369.13;;;17.89;71.31
51083;BME280;37131;42.694;23.350;2022-08-01T00:29:03;95363.34;;;17.92;72.17
51083;BME280;37131;42.694;23.350;2022-08-01T00:31:28;95374.44;;;17.84;72.86
51083;BME280;37131;42.694;23.350;2022-08-01T00:33:54;95373.59;;;18.04;70.56
51083;BME280;37131;42.694;23.350;2022-08-01T00:36:19;95373.63;;;17.88;72.87
51083;BME280;37131;42.694;23.350;2022-08-01T00:38:45;95372.59;;;17.90;71.45
51083;BME280;37131;42.694;23.350;2022-08-01T00:41:10;95370.22;;;17.73;72.45
51083;BME280;37131;42.694;23.350;2022-08-01T00:43:35;95372.31;;;17.81;72.73
51083;BME280;37131;42.694;23.350;2022-08-01T00:46:01;95369.97;;;17.90;72.38
51083;BME280;37131;42.694;23.350;2022-08-01T00:48:26;95360.94;;;18.11;71.77
51083;BME280;37131;42.694;23.350;2022-08-01T00:50:51;95365.19;;;17.86;71.69
51083;BME280;37131;42.694;23.350;2022-08-01T00:53:17;95367.06;;;17.81;72.66
51083;BME280;37131;42.694;23.350;2022-08-01T00:55:42;95348.56;;;18.01;71.64
51083;BME280;37131;42.694;23.350;2022-08-01T00:58:08;95345.13;;;18.01;72.40
51083;BME280;37131;42.694;23.350;2022-08-01T01:00:34;95339.34;;;17.99;73.30
51083;BME280;37131;42.694;23.350;2022-08-01T01:03:00;95340.63;;;18.06;72.05
51083;BME280;37131;42.694;23.350;2022-08-01T01:05:26;95337.75;;;18.03;72.17
51083;BME280;37131;42.694;23.350;2022-08-01T01:08:02;95335.38;;;17.96;72.36
51083;BME280;37131;42.694;23.350;2022-08-01T01:13:11;95339.66;;;17.66;73.53
51083;BME280;37131;42.694;23.350;2022-08-01T01:15:46;95339.13;;;17.69;74.56
51083;BME280;37131;42.694;23.350;2022-08-01T01:20:54;95328.81;;;17.83;73.40
51083;BME280;37131;42.694;23.350;2022-08-01T01:29:30;95324.59;;;17.77;75.51
51083;BME280;37131;42.694;23.350;2022-08-01T01:34:48;95313.84;;;17.53;75.59
51083;BME280;37131;42.694;23.350;2022-08-01T01:37:17;95322.25;;;17.55;76.53
51083;BME280;37131;42.694;23.350;2022-08-01T01:39:44;95320.16;;;17.47;76.86
51083;BME280;37131;42.694;23.350;2022-08-01T01:42:12;95308.59;;;17.27;77.32
51083;BME280;37131;42.694;23.350;2022-08-01T01:44:40;95308.31;;;17.39;76.37
51083;BME280;37131;42.694;23.350;2022-08-01T01:47:08;95313.84;;;17.43;77.63
51083;BME280;37131;42.694;23.350;2022-08-01T01:49:34;95311.47;;;17.31;78.66
51083;BME280;37131;42.694;23.350;2022-08-01T01:52:01;95308.84;;;17.31;76.95
51083;BME280;37131;42.694;23.350;2022-08-01T01:54:31;95307.00;;;17.31;77.86
51083;BME280;37131;42.694;23.350;2022-08-01T01:56:59;95307.78;;;17.47;77.72
51083;BME280;37131;42.694;23.350;2022-08-01T01:59:28;95309.91;;;17.30;76.41
51083;BME280;37131;42.694;23.350;2022-08-01T02:01:55;95309.38;;;17.38;74.83
51083;BME280;37131;42.694;23.350;2022-08-01T02:04:24;95309.09;;;17.50;75.09
51083;BME280;37131;42.694;23.350;2022-08-01T02:06:51;95300.44;;;16.98;77.37
51083;BME280;37131;42.694;23.350;2022-08-01T02:09:20;95310.44;;;17.06;77.36
51083;BME280;37131;42.694;23.350;2022-08-01T02:11:47;95299.63;;;17.23;77.49
51083;BME280;37131;42.694;23.350;2022-08-01T02:14:15;95297.00;;;17.13;77.81
51083;BME280;37131;42.694;23.350;2022-08-01T02:16:44;95281.19;;;17.18;76.23
51083;BME280;37131;42.694;23.350;2022-08-01T02:19:10;95248.75;;;16.66;76.43
51083;BME280;37131;42.694;23.350;2022-08-01T02:21:40;95302.28;;;17.13;78.30
51083;BME280;37131;42.694;23.350;2022-08-01T02:24:20;95301.19;;;17.24;76.70
51083;BME280;37131;42.694;23.350;2022-08-01T02:26:50;95268.56;;;16.99;75.65
51083;BME280;37131;42.694;23.350;2022-08-01T02:29:33;95308.06;;;16.94;74.08
51083;BME280;37131;42.694;23.350;2022-08-01T02:32:01;95296.19;;;17.02;75.88
51083;BME280;37131;42.694;23.350;2022-08-01T02:34:29;95302.81;;;17.10;74.26
51083;BME280;37131;42.694;23.350;2022-08-01T02:36:58;95304.91;;;17.13;75.33
51083;BME280;37131;42.694;23.350;2022-08-01T02:39:27;95303.06;;;17.08;75.49
51083;BME280;37131;42.694;23.350;2022-08-01T02:41:57;95299.91;;;17.22;75.05
51083;BME280;37131;42.694;23.350;2022-08-01T02:44:28;95263.56;;;16.98;75.24
51083;BME280;37131;42.694;23.350;2022-08-01T02:47:00;95298.28;;;16.74;77.48
51083;BME280;37131;42.694;23.350;2022-08-01T02:49:36;95300.63;;;16.65;76.30
51083;BME280;37131;42.694;23.350;2022-08-01T02:52:05;95294.31;;;16.72;75.20
51083;BME280;37131;42.694;23.350;2022-08-01T02:54:33;95296.88;;;16.46;75.56
51083;BME280;37131;42.694;23.350;2022-08-01T02:57:00;95236.88;;;16.33;75.45
51083;BME280;37131;42.694;23.350;2022-08-01T02:59:26;95290.59;;;16.52;77.04
51083;BME280;37131;42.694;23.350;2022-08-01T03:01:56;95301.81;;;16.22;77.16
51083;BME280;37131;42.694;23.350;2022-08-01T03:04:23;95309.31;;;16.61;75.17
51083;BME280;37131;42.694;23.350;2022-08-01T03:06:51;95301.31;;;16.25;77.68
51083;BME280;37131;42.694;23.350;2022-08-01T03:09:18;95304.78;;;16.46;76.90
51083;BME280;37131;42.694;23.350;2022-08-01T03:11:45;95310.03;;;16.46;76.20
51083;BME280;37131;42.694;23.350;2022-08-01T03:14:12;95285.28;;;16.31;77.62
51083;BME280;37131;42.694;23.350;2022-08-01T03:16:40;95305.81;;;16.35;77.52
51083;BME280;37131;42.694;23.350;2022-08-01T03:19:08;95304.53;;;16.58;75.96
51083;BME280;37131;42.694;23.350;2022-08-01T03:21:35;95303.75;;;16.57;76.28
51083;BME280;37131;42.694;23.350;2022-08-01T03:24:03;95305.06;;;16.55;75.72
51083;BME280;37131;42.694;23.350;2022-08-01T03:26:32;95306.91;;;16.49;75.98
51083;BME280;37131;42.694;23.350;2022-08-01T03:29:03;95320.06;;;16.54;76.62
51083;BME280;37131;42.694;23.350;2022-08-01T03:31:36;95314.78;;;16.44;76.50
51083;BME280;37131;42.694;23.350;2022-08-01T03:34:04;95297.38;;;16.27;76.72
51083;BME280;37131;42.694;23.350;2022-08-01T03:36:31;95288.41;;;16.23;77.84
51083;BME280;37131;42.694;23.350;2022-08-01T03:39:00;95310.53;;;16.33;77.50
51083;BME280;37131;42.694;23.350;2022-08-01T03:41:32;95305.53;;;16.26;78.08
51083;BME280;37131;42.694;23.350;2022-08-01T03:44:05;95292.78;;;15.92;80.02
51083;BME280;37131;42.694;23.350;2022-08-01T03:46:36;95314.63;;;15.98;79.69
51083;BME280;37131;42.694;23.350;2022-08-01T03:49:09;95313.06;;;16.07;79.14
51083;BME280;37131;42.694;23.350;2022-08-01T03:51:36;95309.63;;;16.01;79.22
51083;BME280;37131;42.694;23.350;2022-08-01T03:54:04;95277.69;;;15.77;79.73
51083;BME280;37131;42.694;23.350;2022-08-01T03:56:31;95320.44;;;16.05;77.97
51083;BME280;37131;42.694;23.350;2022-08-01T03:58:59;95321.00;;;16.22;78.48
51083;BME280;37131;42.694;23.350;2022-08-01T04:01:27;95316.06;;;16.31;75.45
51083;BME280;37131;42.694;23.350;2022-08-01T04:03:54;95322.69;;;16.39;76.74
51083;BME280;37131;42.694;23.350;2022-08-01T04:06:20;95312.41;;;16.37;75.32
51083;BME280;37131;42.694;23.350;2022-08-01T04:08:45;95322.44;;;16.51;74.20
51083;BME280;37131;42.694;23.350;2022-08-01T04:11:21;95313.16;;;16.33;77.51
51083;BME280;37131;42.694;23.350;2022-08-01T04:13:47;95314.22;;;16.31;78.04
51083;BME280;37131;42.694;23.350;2022-08-01T04:16:13;95325.78;;;16.30;76.58
51083;BME280;37131;42.694;23.350;2022-08-01T04:18:39;95327.59;;;16.20;78.88
51083;BME280;37131;42.694;23.350;2022-08-01T04:21:04;95321.34;;;16.36;77.99
51083;BME280;37131;42.694;23.350;2022-08-01T04:23:30;95293.69;;;16.28;76.03
51083;BME280;37131;42.694;23.350;2022-08-01T04:25:59;95322.16;;;16.42;74.94
51083;BME280;37131;42.694;23.350;2022-08-01T04:28:25;95326.59;;;16.41;76.58
51083;BME280;37131;42.694;23.350;2022-08-01T04:30:54;95239.72;;;16.21;75.03
51083;BME280;37131;42.694;23.350;2022-08-01T04:33:21;95325.38;;;16.80;75.23
51083;BME280;37131;42.694;23.350;2022-08-01T04:35:48;95321.44;;;16.72;76.68
51083;BME280;37131;42.694;23.350;2022-08-01T04:38:17;95317.75;;;16.73;75.14
51083;BME280;37131;42.694;23.350;2022-08-01T04:40:44;95328.88;;;16.91;75.57
51083;BME280;37131;42.694;23.350;2022-08-01T04:43:13;95322.81;;;17.16;72.64
51083;BME280;37131;42.694;23.350;2022-08-01T04:45:39;95320.44;;;17.19;74.92
51083;BME280;37131;42.694;23.350;2022-08-01T04:48:05;95317.03;;;17.29;75.00
51083;BME280;37131;42.694;23.350;2022-08-01T04:50:32;95285.16;;;17.10;72.54
51083;BME280;37131;42.694;23.350;2022-08-01T04:52:57;95311.72;;;17.50;69.55
51083;BME280;37131;42.694;23.350;2022-08-01T04:55:23;95324.09;;;17.54;68.88
51083;BME280;37131;42.694;23.350;2022-08-01T04:57:48;95321.44;;;17.70;70.21
51083;BME280;37131;42.694;23.350;2022-08-01T05:00:14;95310.63;;;17.77;67.70
51083;BME280;37131;42.694;23.350;2022-08-01T05:02:41;95300.34;;;17.70;69.51
51083;BME280;37131;42.694;23.350;2022-08-01T05:05:07;95250.03;;;17.56;68.57
51083;BME280;37131;42.694;23.350;2022-08-01T05:07:33;95294.50;;;17.94;69.07
51083;BME280;37131;42.694;23.350;2022-08-01T05:10:02;95287.63;;;18.03;67.96
51083;BME280;37131;42.694;23.350;2022-08-01T05:12:27;95300.69;;;18.29;64.65
51083;BME280;37131;42.694;23.350;2022-08-01T05:14:53;95283.84;;;18.19;62.51
51083;BME280;37131;42.694;23.350;2022-08-01T05:17:18;95291.94;;;18.38;63.12
51083;BME280;37131;42.694;23.350;2022-08-01T05:19:44;95290.81;;;18.50;62.47
51083;BME280;37131;42.694;23.350;2022-08-01T05:22:10;95289.44;;;18.63;62.41
51083;BME280;37131;42.694;23.350;2022-08-01T05:24:37;95289.91;;;18.70;61.58
51083;BME280;37131;42.694;23.350;2022-08-01T05:27:04;95294.84;;;18.82;59.94
51083;BME280;37131;42.694;23.350;2022-08-01T05:29:30;95292.56;;;18.70;60.27
51083;BME280;37131;42.694;23.350;2022-08-01T05:31:55;95288.50;;;18.88;59.09
51083;BME280;37131;42.694;23.350;2022-08-01T05:34:21;95276.03;;;18.93;58.93
51083;BME280;37131;42.694;23.350;2022-08-01T05:36:47;95292.47;;;19.20;58.74
51083;BME280;37131;42.694;23.350;2022-08-01T05:39:12;95295.88;;;19.55;58.90
51083;BME280;37131;42.694;23.350;2022-08-01T05:41:38;95299.81;;;19.57;58.18
51083;BME280;37131;42.694;23.350;2022-08-01T05:44:04;95298.63;;;19.44;56.61
51083;BME280;37131;42.694;23.350;2022-08-01T05:46:30;95293.66;;;19.38;56.84
51083;BME280;37131;42.694;23.350;2022-08-01T05:48:59;95286.28;;;19.59;56.51
51083;BME280;37131;42.694;23.350;2022-08-01T05:51:25;95209.13;;;19.33;55.49
51083;BME280;37131;42.694;23.350;2022-08-01T05:53:51;95289.47;;;19.90;55.02
51083;BME280;37131;42.694;23.350;2022-08-01T05:56:16;95295.81;;;19.89;54.95
51083;BME280;37131;42.694;23.350;2022-08-01T05:58:41;95301.31;;;19.93;54.21
51083;BME280;37131;42.694;23.350;2022-08-01T06:01:07;95303.56;;;20.05;55.36
51083;BME280;37131;42.694;23.350;2022-08-01T06:03:32;95303.59;;;20.24;54.51
51083;BME280;37131;42.694;23.350;2022-08-01T06:05:59;95301.88;;;20.14;53.81
51083;BME280;37131;42.694;23.350;2022-08-01T06:08:25;95293.47;;;20.31;54.03
51083;BME280;37131;42.694;23.350;2022-08-01T06:10:50;95295.09;;;20.27;54.05
51083;BME280;37131;42.694;23.350;2022-08-01T06:13:16;95297.41;;;20.53;53.52
51083;BME280;37131;42.694;23.350;2022-08-01T06:15:43;95255.47;;;20.41;50.90
51083;BME280;37131;42.694;23.350;2022-08-01T06:18:08;95293.56;;;20.83;51.71
51083;BME280;37131;42.694;23.350;2022-08-01T06:20:34;95302.22;;;20.89;51.26
51083;BME280;37131;42.694;23.350;2022-08-01T06:22:59;95306.63;;;20.79;50.73
51083;BME280;37131;42.694;23.350;2022-08-01T06:25:25;95296.78;;;20.99;50.69
51083;BME280;37131;42.694;23.350;2022-08-01T06:27:50;95293.84;;;21.00;51.91
51083;BME280;37131;42.694;23.350;2022-08-01T06:30:15;95291.13;;;21.06;50.23
51083;BME280;37131;42.694;23.350;2022-08-01T06:32:41;95292.91;;;21.10;50.49
51083;BME280;37131;42.694;23.350;2022-08-01T06:35:07;95295.84;;;21.09;49.98
51083;BME280;37131;42.694;23.350;2022-08-01T06:37:32;95295.63;;;21.05;49.27
51083;BME280;37131;42.694;23.350;2022-08-01T06:42:27;95286.75;;;21.29;46.70
51083;BME280;37131;42.694;23.350;2022-08-01T06:44:53;95286.66;;;21.20;46.71
51083;BME280;37131;42.694;23.350;2022-08-01T06:47:18;95274.19;;;21.34;45.17
51083;BME280;37131;42.694;23.350;2022-08-01T06:49:43;95271.81;;;21.52;45.75
51083;BME280;37131;42.694;23.350;2022-08-01T06:52:09;95273.44;;;21.48;46.53
51083;BME280;37131;42.694;23.350;2022-08-01T06:54:34;95274.78;;;21.78;47.74
51083;BME280;37131;42.694;23.350;2022-08-01T06:57:00;95254.72;;;21.86;46.13
51083;BME280;37131;42.694;23.350;2022-08-01T06:59:25;95253.94;;;21.85;46.79
51083;BME280;37131;42.694;23.350;2022-08-01T07:01:50;95180.28;;;21.49;45.23
51083;BME280;37131;42.694;23.350;2022-08-01T07:09:06;95252.66;;;22.11;44.51
51083;BME280;37131;42.694;23.350;2022-08-01T07:11:32;95249.06;;;22.29;45.38
51083;BME280;37131;42.694;23.350;2022-08-01T07:13:57;95250.66;;;22.16;46.30
51083;BME280;37131;42.694;23.350;2022-08-01T07:16:23;95255.94;;;22.30;44.66
51083;BME280;37131;42.694;23.350;2022-08-01T07:18:48;95259.50;;;22.25;44.02
51083;BME280;37131;42.694;23.350;2022-08-01T07:21:14;95270.16;;;22.12;44.35
51083;BME280;37131;42.694;23.350;2022-08-01T07:23:39;95259.38;;;22.31;44.24
51083;BME280;37131;42.694;23.350;2022-08-01T07:26:04;95273.47;;;22.31;44.66
51083;BME280;37131;42.694;23.350;2022-08-01T07:28:31;95262.31;;;22.57;45.87
51083;BME280;37131;42.694;23.350;2022-08-01T07:30:57;95202.28;;;22.19;43.62
51083;BME280;37131;42.694;23.350;2022-08-01T07:33:22;95266.28;;;22.46;42.92
51083;BME280;37131;42.694;23.350;2022-08-01T07:35:48;95265.78;;;22.43;43.32
51083;BME280;37131;42.694;23.350;2022-08-01T07:38:14;95264.78;;;22.53;43.00
51083;BME280;37131;42.694;23.350;2022-08-01T07:40:42;95264.78;;;22.53;44.17
51083;BME280;37131;42.694;23.350;2022-08-01T07:43:07;95263.06;;;22.71;43.29
51083;BME280;37131;42.694;23.350;2022-08-01T07:45:33;95263.19;;;22.66;42.83
51083;BME280;37131;42.694;23.350;2022-08-01T07:48:03;95263.13;;;22.80;43.05
51083;BME280;37131;42.694;23.350;2022-08-01T07:50:29;95263.44;;;22.65;43.40
51083;BME280;37131;42.694;23.350;2022-08-01T07:52:55;95258.41;;;22.77;43.41
51083;BME280;37131;42.694;23.350;2022-08-01T07:55:20;95261.13;;;22.86;42.66
51083;BME280;37131;42.694;23.350;2022-08-01T07:57:45;95265.34;;;23.09;43.36
51083;BME280;37131;42.694;23.350;2022-08-01T08:00:11;95256.59;;;23.32;43.38
51083;BME280;37131;42.694;23.350;2022-08-01T08:02:38;95257.53;;;23.27;42.54
51083;BME280;37131;42.694;23.350;2022-08-01T08:05:03;95252.00;;;23.23;44.14
51083;BME280;37131;42.694;23.350;2022-08-01T08:07:29;95257.38;;;23.09;43.73
51083;BME280;37131;42.694;23.350;2022-08-01T08:09:55;95261.69;;;23.19;43.29
51083;BME280;37131;42.694;23.350;2022-08-01T08:12:21;95253.81;;;22.91;43.31
51083;BME280;37131;42.694;23.350;2022-08-01T08:14:47;95258.28;;;23.27;43.53
51083;BME280;37131;42.694;23.350;2022-08-01T08:17:12;95254.75;;;23.41;42.87
51083;BME280;37131;42.694;23.350;2022-08-01T08:19:37;95260.66;;;23.29;42.59
51083;BME280;37131;42.694;23.350;2022-08-01T08:22:05;95259.88;;;23.28;43.25
51083;BME280;37131;42.694;23.350;2022-08-01T08:24:31;95258.47;;;23.08;43.34
51083;BME280;37131;42.694;23.350;2022-08-01T08:26:58;95252.50;;;23.25;42.77
51083;BME280;37131;42.694;23.350;2022-08-01T08:29:25;95274.13;;;23.10;43.50
51083;BME280;37131;42.694;23.350;2022-08-01T08:31:54;95261.34;;;23.43;41.53
51083;BME280;37131;42.694;23.350;2022-08-01T08:34:20;95259.63;;;23.39;40.54
51083;BME280;37131;42.694;23.350;2022-08-01T08:36:46;95252.31;;;23.22;41.44
51083;BME280;37131;42.694;23.350;2022-08-01T08:39:11;95242.63;;;23.26;41.72
51083;BME280;37131;42.694;23.350;2022-08-01T08:41:37;95253.91;;;23.63;43.09
51083;BME280;37131;42.694;23.350;2022-08-01T08:44:06;95251.75;;;23.74;41.79
51083;BME280;37131;42.694;23.350;2022-08-01T08:46:33;95254.84;;;23.58;40.58
51083;BME280;37131;42.694;23.350;2022-08-01T08:49:01;95251.25;;;23.63;40.37
51083;BME280;37131;42.694;23.350;2022-08-01T08:51:27;95252.50;;;23.57;40.51
51083;BME280;37131;42.694;23.350;2022-08-01T08:53:55;95252.09;;;23.81;40.35
51083;BME280;37131;42.694;23.350;2022-08-01T08:56:23;95256.03;;;23.83;41.20
51083;BME280;37131;42.694;23.350;2022-08-01T08:58:51;95242.50;;;24.03;38.70
51083;BME280;37131;42.694;23.350;2022-08-01T09:01:16;95242.50;;;24.03;38.79
51083;BME280;37131;42.694;23.350;2022-08-01T09:03:43;95237.16;;;24.03;39.29
51083;BME280;37131;42.694;23.350;2022-08-01T09:06:10;95245.19;;;24.20;38.24
51083;BME280;37131;42.694;23.350;2022-08-01T09:08:35;95239.88;;;24.38;38.40
51083;BME280;37131;42.694;23.350;2022-08-01T09:11:01;95244.13;;;24.47;38.42
51083;BME280;37131;42.694;23.350;2022-08-01T09:13:26;95236.75;;;24.35;38.71
51083;BME280;37131;42.694;23.350;2022-08-01T09:15:54;95241.44;;;24.39;39.54
51083;BME280;37131;42.694;23.350;2022-08-01T09:18:34;95234.41;;;24.43;39.44
51083;BME280;37131;42.694;23.350;2022-08-01T09:23:41;95225.34;;;24.61;38.36
51083;BME280;37131;42.694;23.350;2022-08-01T09:26:08;95215.59;;;24.65;37.65
51083;BME280;37131;42.694;23.350;2022-08-01T09:28:34;95240.69;;;24.56;38.47
51083;BME280;37131;42.694;23.350;2022-08-01T09:31:06;95222.38;;;24.72;38.34
51083;BME280;37131;42.694;23.350;2022-08-01T09:36:15;95222.19;;;24.85;36.06
51083;BME280;37131;42.694;23.350;2022-08-01T09:38:41;95218.44;;;24.60;36.39
51083;BME280;37131;42.694;23.350;2022-08-01T09:41:06;95237.69;;;24.57;37.21
51083;BME280;37131;42.694;23.350;2022-08-01T09:43:33;95230.19;;;24.59;37.35
51083;BME280;37131;42.694;23.350;2022-08-01T09:45:59;95230.38;;;24.72;36.37
51083;BME280;37131;42.694;23.350;2022-08-01T09:48:26;95193.47;;;24.30;36.60
51083;BME280;37131;42.694;23.350;2022-08-01T09:50:52;95235.34;;;24.47;37.23
51083;BME280;37131;42.694;23.350;2022-08-01T09:53:19;95233.81;;;24.63;36.63
51083;BME280;37131;42.694;23.350;2022-08-01T09:55:45;95235.06;;;24.75;36.86
51083;BME280;37131;42.694;23.350;2022-08-01T09:58:12;95231.91;;;24.64;37.14
51083;BME280;37131;42.694;23.350;2022-08-01T10:00:38;95238.97;;;24.86;37.20
51083;BME280;37131;42.694;23.350;2022-08-01T10:03:21;95242.53;;;25.08;36.73
51083;BME280;37131;42.694;23.350;2022-08-01T10:05:47;95226.81;;;25.24;36.42
51083;BME280;37131;42.694;23.350;2022-08-01T10:08:13;95211.78;;;25.10;35.42
51083;BME280;37131;42.694;23.350;2022-08-01T10:10:38;95181.06;;;24.95;36.36
51083;BME280;37131;42.694;23.350;2022-08-01T10:13:04;95224.69;;;25.55;37.42
51083;BME280;37131;42.694;23.350;2022-08-01T10:15:30;95228.19;;;25.47;36.78
51083;BME280;37131;42.694;23.350;2022-08-01T10:17:58;95225.34;;;25.44;36.51
51083;BME280;37131;42.694;23.350;2022-08-01T10:20:26;95215.75;;;25.60;36.04
51083;BME280;37131;42.694;23.350;2022-08-01T10:22:59;95206.53;;;25.79;38.12
51083;BME280;37131;42.694;23.350;2022-08-01T10:25:27;95208.09;;;25.50;36.08
51083;BME280;37131;42.694;23.350;2022-08-01T10:27:53;95177.72;;;25.63;36.10
51083;BME280;37131;42.694;23.350;2022-08-01T10:30:22;95202.81;;;26.01;36.49
51083;BME280;37131;42.694;23.350;2022-08-01T10:32:51;95198.63;;;25.91;34.74
51083;BME280;37131;42.694;23.350;2022-08-01T10:35:18;95190.88;;;25.68;35.69
51083;BME280;37131;42.694;23.350;2022-08-01T10:37:45;95182.69;;;26.03;35.79
51083;BME280;37131;42.694;23.350;2022-08-01T10:40:14;95186.03;;;26.21;36.83
51083;BME280;37131;42.694;23.350;2022-08-01T10:42:43;95182.75;;;26.16;36.54
51083;BME280;37131;42.694;23.350;2022-08-01T10:45:10;95189.34;;;26.18;36.29
51083;BME280;37131;42.694;23.350;2022-08-01T10:50:37;95202.25;;;25.48;36.87
51083;BME280;37131;42.694;23.350;2022-08-01T10:53:14;95180.50;;;25.67;35.88
51083;BME280;37131;42.694;23.350;2022-08-01T10:58:32;95194.88;;;25.53;35.83
51083;BME280;37131;42.694;23.350;2022-08-01T11:04:02;95196.47;;;25.46;37.77
51083;BME280;37131;42.694;23.350;2022-08-01T11:12:06;95181.38;;;26.09;35.39
51083;BME280;37131;42.694;23.350;2022-08-01T11:17:35;95174.81;;;26.07;35.68
51083;BME280;37131;42.694;23.350;2022-08-01T11:22:30;95178.44;;;26.23;34.69
51083;BME280;37131;42.694;23.350;2022-08-01T11:24:56;95168.16;;;25.83;35.76
51083;BME280;37131;42.694;23.350;2022-08-01T11:27:30;95171.81;;;25.79;36.14
51083;BME280;37131;42.694;23.350;2022-08-01T11:35:13;95172.59;;;26.30;34.75
51083;BME280;37131;42.694;23.350;2022-08-01T11:37:39;95161.09;;;26.51;34.23
51083;BME280;37131;42.694;23.350;2022-08-01T11:40:26;95155.31;;;26.70;36.91
51083;BME280;37131;42.694;23.350;2022-08-01T11:45:53;95164.06;;;26.16;35.24
51083;BME280;37131;42.694;23.350;2022-08-01T11:48:22;95166.16;;;25.80;35.08
51083;BME280;37131;42.694;23.350;2022-08-01T11:50:50;95165.41;;;26.01;35.41
51083;BME280;37131;42.694;23.350;2022-08-01T11:53:15;95160.47;;;26.12;35.00
51083;BME280;37131;42.694;23.350;2022-08-01T11:55:53;95088.97;;;25.87;36.01
51083;BME280;37131;42.694;23.350;2022-08-01T11:58:24;95157.25;;;26.60;35.27
51083;BME280;37131;42.694;23.350;2022-08-01T12:00:51;95152.66;;;26.49;36.08
51083;BME280;37131;42.694;23.350;2022-08-01T12:03:26;95155.50;;;26.01;35.26
51083;BME280;37131;42.694;23.350;2022-08-01T12:05:53;95152.38;;;25.99;35.64
51083;BME280;37131;42.694;23.350;2022-08-01T12:08:27;95145.69;;;26.35;35.51
51083;BME280;37131;42.694;23.350;2022-08-01T12:10:53;95150.03;;;26.40;35.40
51083;BME280;37131;42.694;23.350;2022-08-01T12:13:19;95159.34;;;26.55;34.65
51083;BME280;37131;42.694;23.350;2022-08-01T12:15:45;95149.91;;;26.36;34.89
51083;BME280;37131;42.694;23.350;2022-08-01T12:18:11;95152.38;;;26.41;35.63
51083;BME280;37131;42.694;23.350;2022-08-01T12:20:38;95149.72;;;26.41;35.59
51083;BME280;37131;42.694;23.350;2022-08-01T12:23:07;95154.91;;;26.59;35.71
51083;BME280;37131;42.694;23.350;2022-08-01T12:25:33;95150.56;;;26.88;35.93
51083;BME280;37131;42.694;23.350;2022-08-01T12:28:07;95160.31;;;27.05;35.91
51083;BME280;37131;42.694;23.350;2022-08-01T12:30:33;95160.75;;;27.07;35.15
51083;BME280;37131;42.694;23.350;2022-08-01T12:33:03;95160.47;;;26.66;35.15
51083;BME280;37131;42.694;23.350;2022-08-01T12:35:30;95150.06;;;26.73;36.06
51083;BME280;37131;42.694;23.350;2022-08-01T12:38:13;95165.78;;;26.75;34.77
51083;BME280;37131;42.694;23.350;2022-08-01T12:40:43;95153.88;;;26.72;34.71
51083;BME280;37131;42.694;23.350;2022-08-01T12:43:09;95118.44;;;26.21;35.04
51083;BME280;37131;42.694;23.350;2022-08-01T12:45:42;95145.34;;;26.91;35.27
51083;BME280;37131;42.694;23.350;2022-08-01T12:48:10;95151.72;;;27.11;34.44
51083;BME280;37131;42.694;23.350;2022-08-01T12:50:41;95151.38;;;27.01;34.45
51083;BME280;37131;42.694;23.350;2022-08-01T12:53:08;95145.78;;;27.06;34.84
51083;BME280;37131;42.694;23.350;2022-08-01T12:55:44;95135.47;;;27.17;34.80
51083;BME280;37131;42.694;23.350;2022-08-01T12:58:12;95146.88;;;27.51;34.54
51083;BME280;37131;42.694;23.350;2022-08-01T13:00:39;95141.94;;;27.65;34.64
51083;BME280;37131;42.694;23.350;2022-08-01T13:03:10;95134.03;;;27.69;33.75
51083;BME280;37131;42.694;23.350;2022-08-01T13:08:13;95132.66;;;27.13;33.84
51083;BME280;37131;42.694;23.350;2022-08-01T13:10:40;95126.44;;;27.21;35.64
51083;BME280;37131;42.694;23.350;2022-08-01T13:13:06;95123.50;;;27.26;34.27
51083;BME280;37131;42.694;23.350;2022-08-01T13:15:34;95130.97;;;27.21;36.13
51083;BME280;37131;42.694;23.350;2022-08-01T13:18:21;95135.16;;;27.43;34.41
51083;BME280;37131;42.694;23.350;2022-08-01T13:20:46;95120.06;;;27.88;34.68
51083;BME280;37131;42.694;23.350;2022-08-01T13:25:49;95119.38;;;29.04;32.29
51083;BME280;37131;42.694;23.350;2022-08-01T13:28:24;95115.28;;;28.78;32.19
51083;BME280;37131;42.694;23.350;2022-08-01T13:30:53;95135.81;;;28.86;32.38
51083;BME280;37131;42.694;23.350;2022-08-01T13:33:19;95120.47;;;28.43;33.13
51083;BME280;37131;42.694;23.350;2022-08-01T13:35:45;95121.06;;;28.64;32.24
51083;BME280;37131;42.694;23.350;2022-08-01T13:38:12;95107.78;;;28.56;33.35
51083;BME280;37131;42.694;23.350;2022-08-01T13:40:38;95112.91;;;28.61;33.01
51083;BME280;37131;42.694;23.350;2022-08-01T13:43:03;95120.13;;;28.44;33.20
51083;BME280;37131;42.694;23.350;2022-08-01T13:45:28;95108.75;;;28.07;33.56
51083;BME280;37131;42.694;23.350;2022-08-01T13:47:54;95117.41;;;27.63;33.93
51083;BME280;37131;42.694;23.350;2022-08-01T13:50:19;95108.09;;;27.85;34.42
51083;BME280;37131;42.694;23.350;2022-08-01T13:52:44;95101.16;;;27.96;33.89